createdAt,value
2023-09-08T00:01:58.888Z,5.70
2023-09-08T00:05:02.991Z,5.50
2023-09-08T00:08:07.134Z,5.60
2023-09-08T00:11:11.117Z,5.90
2023-09-08T00:14:15.053Z,5.30
2023-09-08T00:17:19.026Z,5.50
2023-09-08T00:20:22.933Z,5.00
2023-09-08T00:23:28.454Z,5.80
2023-09-08T00:26:34.109Z,5.80
2023-09-08T00:29:38.127Z,5.70
2023-09-08T00:32:42.274Z,5.40
2023-09-08T00:35:50.043Z,5.80
2023-09-08T00:38:54.170Z,6.40
2023-09-08T00:41:58.158Z,5.50
2023-09-08T00:45:02.151Z,5.70
2023-09-08T00:48:06.494Z,5.40
2023-09-08T00:51:11.151Z,5.10
2023-09-08T00:54:16.537Z,5.50
2023-09-08T00:57:20.486Z,6.00
2023-09-08T01:00:24.394Z,6.40
2023-09-08T01:03:28.486Z,6.00
2023-09-08T01:06:34.125Z,5.40
2023-09-08T01:09:39.007Z,5.90
2023-09-08T01:12:43.026Z,5.80
2023-09-08T01:15:46.991Z,6.10
2023-09-08T01:18:53.583Z,6.00
2023-09-08T01:22:30.936Z,5.50
2023-09-08T01:25:39.755Z,6.00
2023-09-08T01:28:46.348Z,5.80
2023-09-08T01:31:51.486Z,5.30
2023-09-08T01:34:58.548Z,5.90
2023-09-08T01:38:03.510Z,5.60
2023-09-08T01:41:09.163Z,5.80
2023-09-08T01:44:14.227Z,6.30
2023-09-08T01:47:18.305Z,5.60
2023-09-08T01:50:23.535Z,6.00
2023-09-08T01:53:27.494Z,5.60
2023-09-08T01:56:31.587Z,6.70
2023-09-08T01:59:35.932Z,5.70
2023-09-08T02:02:40.413Z,5.70
2023-09-08T02:05:45.743Z,5.50
2023-09-08T02:08:49.997Z,5.50
2023-09-08T02:11:54.231Z,5.30
2023-09-08T02:14:58.385Z,5.80
2023-09-08T02:18:02.556Z,5.60
2023-09-08T02:21:06.609Z,5.40
2023-09-08T02:24:10.761Z,5.10
2023-09-08T02:27:14.889Z,4.90
2023-09-08T02:30:18.931Z,6.30
2023-09-08T02:33:23.149Z,5.40
2023-09-08T02:39:33.813Z,5.90
2023-09-08T02:42:38.165Z,5.30
2023-09-08T02:45:42.239Z,6.10
2023-09-08T02:48:46.220Z,5.30
2023-09-08T02:51:50.193Z,5.90
2023-09-08T02:54:54.267Z,6.40
2023-09-08T02:57:58.389Z,5.30
2023-09-08T03:01:13.194Z,5.30
2023-09-08T03:04:17.285Z,5.10
2023-09-08T03:07:21.388Z,5.40
2023-09-08T03:10:25.831Z,5.90
2023-09-08T03:13:30.382Z,5.10
2023-09-08T03:19:38.602Z,5.90
2023-09-08T03:22:44.195Z,5.30
2023-09-08T03:25:49.913Z,6.00
2023-09-08T03:28:53.992Z,6.50
2023-09-08T03:31:58.071Z,5.90
2023-09-08T03:35:02.326Z,6.00
2023-09-08T03:38:06.297Z,5.70
2023-09-08T03:44:16.041Z,5.30
2023-09-08T03:47:20.102Z,5.80
2023-09-08T03:50:24.038Z,5.90
2023-09-08T03:53:27.983Z,6.70
2023-09-08T03:56:32.066Z,6.50
2023-09-08T03:59:36.079Z,6.00
2023-09-08T04:02:41.067Z,6.20
2023-09-08T04:08:49.426Z,6.00
2023-09-08T04:11:54.098Z,7.00
2023-09-08T04:14:58.047Z,5.80
2023-09-08T04:18:03.215Z,5.90
2023-09-08T04:21:08.989Z,6.20
2023-09-08T04:24:13.125Z,5.40
2023-09-08T04:27:17.200Z,5.90
2023-09-08T04:30:21.374Z,5.20
2023-09-08T04:33:25.730Z,6.00
2023-09-08T04:36:31.566Z,7.00
2023-09-08T04:39:38.218Z,6.30
2023-09-08T04:42:42.637Z,6.20
2023-09-08T04:45:47.139Z,6.20
2023-09-08T04:48:51.207Z,6.80
2023-09-08T04:51:55.620Z,6.50
2023-09-08T04:55:00.949Z,7.70
2023-09-08T05:01:10.127Z,7.40
2023-09-08T05:04:14.448Z,6.50
2023-09-08T05:07:20.209Z,6.30
2023-09-08T05:10:26.235Z,5.50
2023-09-08T05:13:31.962Z,6.00
2023-09-08T05:16:40.679Z,5.00
2023-09-08T05:19:47.343Z,6.00
2023-09-08T05:22:51.341Z,6.90
2023-09-08T05:25:56.299Z,6.70
2023-09-08T05:29:00.530Z,7.10
2023-09-08T05:32:05.322Z,6.90
2023-09-08T05:35:09.903Z,7.30
2023-09-08T05:41:18.313Z,7.30
2023-09-08T05:44:22.922Z,7.30
2023-09-08T05:47:27.261Z,7.10
2023-09-08T05:53:37.085Z,7.00
2023-09-08T05:56:41.981Z,7.40
2023-09-08T05:59:46.212Z,7.70
2023-09-08T06:02:50.480Z,7.20
2023-09-08T06:05:55.349Z,7.00
2023-09-08T06:08:59.877Z,7.40
2023-09-08T06:12:05.533Z,6.40
2023-09-08T06:15:10.034Z,7.60
2023-09-08T06:18:14.942Z,7.00
2023-09-08T06:21:19.795Z,7.50
2023-09-08T06:24:24.075Z,7.40
2023-09-08T06:27:28.505Z,6.10
2023-09-08T06:30:33.207Z,6.80
2023-09-08T06:36:43.465Z,6.90
2023-09-08T06:39:48.320Z,7.80
2023-09-08T06:42:53.002Z,7.50
2023-09-08T06:46:05.756Z,6.60
2023-09-08T06:49:10.197Z,6.50
2023-09-08T06:52:14.515Z,6.60
2023-09-08T06:55:20.773Z,6.40
2023-09-08T06:58:25.161Z,7.40
2023-09-08T07:01:29.461Z,6.90
2023-09-08T07:04:34.129Z,7.00
2023-09-08T07:07:38.891Z,7.00
2023-09-08T07:10:43.966Z,7.30
2023-09-08T07:13:48.746Z,6.30
2023-09-08T07:16:53.121Z,6.40
2023-09-08T07:19:57.377Z,6.40
2023-09-08T07:23:02.085Z,6.10
2023-09-08T07:26:07.112Z,7.00
2023-09-08T07:29:13.081Z,6.50
2023-09-08T07:32:20.147Z,5.80
2023-09-08T07:35:25.322Z,5.60
2023-09-08T07:38:29.629Z,6.00
2023-09-08T07:41:33.821Z,7.20
2023-09-08T07:44:37.926Z,6.40
2023-09-08T07:47:45.062Z,6.00
2023-09-08T07:50:49.222Z,6.40
2023-09-08T07:53:55.018Z,6.00
2023-09-08T07:56:59.005Z,6.20
2023-09-08T08:00:04.136Z,5.90
2023-09-08T08:03:16.001Z,7.30
2023-09-08T08:06:21.150Z,6.40
2023-09-08T08:09:25.088Z,6.60
2023-09-08T08:12:29.080Z,5.70
2023-09-08T08:15:38.207Z,5.40
2023-09-08T08:18:42.386Z,6.20
2023-09-08T08:21:46.580Z,5.80
2023-09-08T08:24:50.714Z,5.90
2023-09-08T08:27:55.527Z,5.50
2023-09-08T08:30:59.530Z,4.90
2023-09-08T08:34:04.069Z,4.80
2023-09-08T08:37:08.098Z,5.00
2023-09-08T08:40:15.539Z,5.60
2023-09-08T08:43:20.866Z,5.30
2023-09-08T08:46:28.072Z,4.60
2023-09-08T08:49:33.566Z,5.30
2023-09-08T08:52:38.849Z,5.60
2023-09-08T08:55:43.273Z,4.30
2023-09-08T08:58:47.739Z,4.50
2023-09-08T09:01:52.078Z,4.50
2023-09-08T09:04:57.165Z,5.30
2023-09-08T09:08:04.503Z,4.40
2023-09-08T09:11:08.632Z,4.80
2023-09-08T09:17:17.186Z,4.40
2023-09-08T09:20:22.382Z,4.50
2023-09-08T09:23:35.115Z,5.10
2023-09-08T09:26:39.702Z,4.80
2023-09-08T09:36:10.420Z,3.90
2023-09-08T09:39:14.542Z,4.40
2023-09-08T09:42:19.068Z,4.40
2023-09-08T09:45:26.371Z,4.50
2023-09-08T09:48:30.745Z,4.40
2023-09-08T09:51:41.949Z,4.40
2023-09-08T09:54:46.502Z,4.00
2023-09-08T10:00:55.616Z,3.60
2023-09-08T10:04:00.463Z,3.60
2023-09-08T10:07:05.207Z,3.70
2023-09-08T10:10:10.488Z,3.50
2023-09-08T10:13:19.208Z,3.70
2023-09-08T10:16:27.249Z,3.20
2023-09-08T10:19:31.882Z,3.40
2023-09-08T10:22:37.702Z,3.70
2023-09-08T10:25:50.582Z,3.40
2023-09-08T10:28:58.727Z,3.60
2023-09-08T10:32:03.822Z,3.60
2023-09-08T10:35:09.407Z,4.40
2023-09-08T10:38:24.444Z,3.50
2023-09-08T10:41:29.984Z,4.00
2023-09-08T10:44:34.053Z,3.40
2023-09-08T10:47:58.443Z,3.90
2023-09-08T10:51:06.249Z,3.70
2023-09-08T10:54:11.350Z,3.90
2023-09-08T10:57:16.944Z,4.10
2023-09-08T11:00:21.824Z,3.70
2023-09-08T11:03:43.849Z,4.00
2023-09-08T11:06:48.077Z,4.60
2023-09-08T11:09:52.073Z,3.80
2023-09-08T11:12:56.071Z,3.70
2023-09-08T11:16:00.303Z,4.00
2023-09-08T11:19:06.076Z,3.70
2023-09-08T11:22:10.286Z,4.40
2023-09-08T11:25:14.382Z,4.10
2023-09-08T11:28:19.199Z,4.30
2023-09-08T11:31:23.854Z,3.50
2023-09-08T11:34:28.228Z,3.90
2023-09-08T11:37:32.324Z,3.80
2023-09-08T11:40:38.111Z,4.20
2023-09-08T11:43:42.363Z,3.60
2023-09-08T11:46:49.626Z,3.70
2023-09-08T11:49:54.200Z,3.00
2023-09-08T11:53:00.343Z,3.00
2023-09-08T11:56:04.709Z,3.90
2023-09-08T12:02:13.852Z,3.40
2023-09-08T12:05:28.698Z,3.80
2023-09-08T12:08:32.936Z,3.50
2023-09-08T12:11:38.452Z,3.70
2023-09-08T12:14:45.805Z,3.60
2023-09-08T12:17:51.782Z,3.20
2023-09-08T12:21:06.128Z,3.10
2023-09-08T12:24:14.024Z,3.60
2023-09-08T12:27:19.844Z,3.80
2023-09-08T12:30:31.052Z,3.40
2023-09-08T12:33:37.106Z,3.70
2023-09-08T12:36:45.155Z,3.80
2023-09-08T12:39:49.401Z,3.80
2023-09-08T12:46:10.712Z,4.30
2023-09-08T12:52:18.737Z,4.10
2023-09-08T12:55:23.428Z,3.80
2023-09-08T12:58:28.916Z,3.70
2023-09-08T13:01:32.948Z,3.90
2023-09-08T13:04:36.971Z,3.70
2023-09-08T13:07:41.047Z,4.30
2023-09-08T13:10:45.385Z,4.30
2023-09-08T13:13:49.442Z,4.20
2023-09-08T13:16:53.421Z,4.00
2023-09-08T13:19:57.365Z,4.00
2023-09-08T13:23:01.457Z,4.10
2023-09-08T13:29:09.942Z,4.30
2023-09-08T13:32:14.641Z,4.30
2023-09-08T13:35:18.846Z,4.60
2023-09-08T13:38:23.212Z,4.50
2023-09-08T13:41:54.849Z,4.10
2023-09-08T13:44:59.202Z,5.10
2023-09-08T13:48:05.913Z,5.00
2023-09-08T13:51:11.106Z,4.80
2023-09-08T13:54:18.252Z,4.50
2023-09-08T13:57:23.080Z,5.00
2023-09-08T14:00:31.266Z,4.70
2023-09-08T14:04:01.292Z,4.50
2023-09-08T14:07:07.321Z,6.30
2023-09-08T14:13:19.888Z,4.20
2023-09-08T14:19:28.082Z,4.20
2023-09-08T14:22:32.413Z,4.20
2023-09-08T14:28:40.528Z,3.90
2023-09-08T14:34:49.885Z,3.80
2023-09-08T14:37:53.877Z,4.30
2023-09-08T14:41:00.125Z,4.50
2023-09-08T14:44:04.505Z,4.20
2023-09-08T14:50:12.748Z,4.30
2023-09-08T14:53:16.663Z,4.80
2023-09-08T14:56:20.674Z,4.50
2023-09-08T15:02:28.713Z,4.30
2023-09-08T15:08:37.438Z,4.40
2023-09-08T15:11:41.378Z,4.10
2023-09-08T15:14:45.403Z,4.50
2023-09-08T15:17:49.583Z,4.40
2023-09-08T15:23:58.831Z,4.90
2023-09-08T15:27:03.790Z,4.50
2023-09-08T15:30:09.054Z,4.40
2023-09-08T15:33:13.441Z,4.80
2023-09-08T15:36:17.579Z,4.60
2023-09-08T15:39:22.521Z,4.70
2023-09-08T15:42:26.548Z,4.50
2023-09-08T15:45:30.629Z,4.70
2023-09-08T15:48:35.589Z,5.10
2023-09-08T15:51:39.680Z,5.30
2023-09-08T15:54:44.036Z,5.00
2023-09-08T15:57:48.757Z,5.40
2023-09-08T16:00:52.762Z,5.50
2023-09-08T16:03:56.959Z,4.60
2023-09-08T16:07:01.089Z,5.00
2023-09-08T16:10:05.948Z,5.20
2023-09-08T16:13:10.018Z,5.00
2023-09-08T16:16:14.119Z,5.30
2023-09-08T16:19:19.265Z,5.30
2023-09-08T16:22:23.376Z,5.70
2023-09-08T16:25:27.687Z,5.60
2023-09-08T16:31:35.529Z,5.40
2023-09-08T16:34:39.766Z,5.50
2023-09-08T16:37:44.592Z,5.10
2023-09-08T16:40:48.574Z,5.90
2023-09-08T16:43:52.502Z,5.10
2023-09-08T16:46:56.444Z,5.80
2023-09-08T16:50:00.602Z,5.10
2023-09-08T16:53:04.814Z,5.50
2023-09-08T16:59:14.305Z,5.60
2023-09-08T17:05:22.490Z,5.90
2023-09-08T17:08:28.239Z,6.40
2023-09-08T17:11:37.981Z,6.60
2023-09-08T17:14:42.033Z,6.60
2023-09-08T17:17:45.991Z,7.00
2023-09-08T17:20:50.123Z,6.40
2023-09-08T17:23:54.616Z,8.20
2023-09-08T17:30:02.861Z,8.50
2023-09-08T17:33:06.871Z,9.30
2023-09-08T17:36:11.383Z,9.10
2023-09-08T17:39:16.046Z,12.70
2023-09-08T17:42:19.991Z,17.90
2023-09-08T17:45:24.058Z,17.70
2023-09-08T17:48:28.221Z,19.40
2023-09-08T17:51:32.337Z,17.80
2023-09-08T17:54:36.316Z,17.10
2023-09-08T17:57:40.858Z,15.10
2023-09-08T18:00:47.414Z,18.30
2023-09-08T18:03:51.889Z,22.00
2023-09-08T18:06:56.102Z,17.20
2023-09-08T18:10:00.472Z,19.50
2023-09-08T18:16:08.972Z,19.30
2023-09-08T18:19:13.984Z,11.90
2023-09-08T18:22:18.040Z,11.60
2023-09-08T18:25:23.568Z,10.00
2023-09-08T18:28:27.645Z,9.90
2023-09-08T18:31:33.215Z,9.20
2023-09-08T18:34:37.330Z,9.40
2023-09-08T18:37:42.541Z,9.00
2023-09-08T18:40:47.510Z,8.70
2023-09-08T18:43:51.429Z,8.90
2023-09-08T18:46:55.411Z,9.10
2023-09-08T18:49:59.913Z,10.50
2023-09-08T18:53:04.064Z,9.90
2023-09-08T18:56:08.106Z,8.80
2023-09-08T18:59:12.070Z,9.80
2023-09-08T19:02:16.060Z,11.80
2023-09-08T19:05:20.255Z,10.80
2023-09-08T19:08:24.367Z,12.10
2023-09-08T19:11:28.577Z,11.60
2023-09-08T19:14:32.580Z,15.90
2023-09-08T19:17:36.742Z,16.60
2023-09-08T19:20:40.840Z,15.80
2023-09-08T19:23:45.885Z,18.00
2023-09-08T19:26:49.837Z,17.70
2023-09-08T19:29:54.357Z,15.40
2023-09-08T19:32:58.516Z,13.90
2023-09-08T19:36:02.896Z,15.20
2023-09-08T19:39:08.176Z,15.10
2023-09-08T19:42:12.563Z,14.60
2023-09-08T19:45:16.654Z,15.30
2023-09-08T19:48:20.678Z,15.00
2023-09-08T19:51:24.792Z,17.10
2023-09-08T19:54:28.708Z,16.70
2023-09-08T19:57:32.644Z,15.20
2023-09-08T20:00:36.627Z,15.20
2023-09-08T20:03:40.895Z,14.20
2023-09-08T20:06:46.861Z,14.10
2023-09-08T20:09:51.103Z,12.90
2023-09-08T20:12:55.045Z,12.80
2023-09-08T20:16:03.778Z,12.60
2023-09-08T20:19:07.888Z,13.40
2023-09-08T20:22:11.902Z,11.40
2023-09-08T20:25:15.905Z,10.80
2023-09-08T20:28:19.883Z,11.00
2023-09-08T20:31:24.112Z,11.40
2023-09-08T20:34:28.092Z,10.20
2023-09-08T20:37:32.091Z,11.00
2023-09-08T20:40:36.113Z,11.90
2023-09-08T20:43:41.130Z,11.80
2023-09-08T20:46:46.897Z,12.50
2023-09-08T20:49:50.982Z,12.30
2023-09-08T20:52:54.926Z,11.90
2023-09-08T20:55:59.504Z,11.70
2023-09-08T20:59:03.544Z,11.10
2023-09-08T21:02:08.987Z,10.30
2023-09-08T21:05:12.952Z,12.30
2023-09-08T21:08:17.334Z,10.50
2023-09-08T21:11:22.540Z,11.00
2023-09-08T21:14:26.518Z,10.70
2023-09-08T21:17:30.663Z,10.50
2023-09-08T21:20:35.876Z,11.10
2023-09-08T21:23:41.031Z,10.30
2023-09-08T21:26:44.989Z,11.10
2023-09-08T21:29:53.666Z,10.80
2023-09-08T21:32:58.193Z,11.80
2023-09-08T21:39:06.808Z,11.90
2023-09-08T21:42:10.864Z,11.20
2023-09-08T21:45:14.968Z,11.20
2023-09-08T21:48:19.583Z,10.80
2023-09-08T21:51:23.543Z,10.90
2023-09-08T21:54:27.852Z,11.40
2023-09-08T21:57:31.792Z,11.00
2023-09-08T22:00:36.915Z,11.70
2023-09-08T22:03:41.260Z,12.60
2023-09-08T22:06:45.672Z,11.40
2023-09-08T22:09:53.497Z,12.20
2023-09-08T22:12:57.548Z,12.10
2023-09-08T22:16:04.841Z,13.50
2023-09-08T22:19:10.462Z,12.60
2023-09-08T22:22:14.552Z,11.40
2023-09-08T22:25:18.992Z,11.30
2023-09-08T22:28:23.073Z,11.80
2023-09-08T22:31:27.047Z,11.40
2023-09-08T22:34:31.320Z,12.60
2023-09-08T22:40:39.616Z,11.20
2023-09-08T22:43:43.560Z,12.90
2023-09-08T22:46:47.662Z,12.70
2023-09-08T22:50:05.564Z,10.80
2023-09-08T22:53:11.478Z,11.70
2023-09-08T22:56:15.527Z,12.00
2023-09-08T23:02:23.802Z,12.30
2023-09-08T23:05:27.813Z,13.30
2023-09-08T23:08:31.770Z,14.30
2023-09-08T23:11:35.798Z,11.40
2023-09-08T23:14:52.379Z,12.70
2023-09-08T23:17:58.308Z,12.50
2023-09-08T23:21:02.453Z,11.80
2023-09-08T23:24:07.202Z,12.80
2023-09-08T23:27:11.207Z,11.40
2023-09-08T23:30:15.771Z,11.20
2023-09-08T23:36:24.840Z,12.00
2023-09-08T23:39:28.802Z,11.80
2023-09-08T23:42:32.842Z,11.40
2023-09-08T23:45:38.101Z,11.90
2023-09-08T23:48:42.249Z,11.20
2023-09-08T23:51:46.864Z,12.40
2023-09-08T23:54:51.045Z,10.50
2023-09-08T23:57:54.953Z,11.50
